Weather observations for the past three days for
Craig Field / Selma
Imperial (Metric)
Date Time (cdt) Wind (mph) Vis. (mi.) Weather Sky Cond. Temperature (ºF) Relative Humidity Wind Chill (°F) Heat Index (°F) Pressure Precipitation (in)
Air Dwpt 6 hour altimeter (in) sea level (mb) 1 hr 3 hr 6 hr
Max. Min.
10 15:55 Calm 10.00 Overcast BKN031 OVC038 77 66.2 69% 79 30.01 0.0
10 15:35 S 5 10.00 Mostly Cloudy BKN033 BKN038 80.6 66.2 62% 83 30.01 0.0
10 15:15 S 6 10.00 Mostly Cloudy BKN032 BKN038 80.6 66.2 62% 83 30.01 0.0
10 14:55 E 7 10.00 Mostly Cloudy BKN032 78.8 66.2 65% 81 30 0.0
10 14:35 Vrbl 5 10.00 Mostly Cloudy BKN033 80.6 66.2 62% 83 30 0.0
10 14:10 Vrbl 5 10.00 Overcast OVC031 78.8 64.4 61% 81 30.01 0.0
10 13:55 Vrbl 6 10.00 Mostly Cloudy BKN031 78.8 64.4 61% 81 30.01 0.0
10 13:35 Vrbl 5 10.00 Mostly Cloudy BKN031 78.8 66.2 65% 81 30.02 0.0
10 13:15 Calm 10.00 Overcast BKN028 OVC032 77 64.4 65% 79 30.03 0.0
10 12:55 E 3 10.00 Overcast BKN026 OVC032 77 66.2 69% 79 30.04 0.0
10 12:35 Calm 10.00 Overcast OVC032 77 66.2 69% 79 30.04 0.0
10 12:15 Calm 10.00 Overcast FEW025 OVC032 75.2 66.2 74% 77 30.05 0.0
10 11:55 NE 5 10.00 Overcast SCT025 OVC033 75.2 66.2 74% 77 30.06 0.0
10 11:35 NE 5 10.00 Overcast OVC033 75.2 66.2 74% 77 30.06 0.0
10 11:15 Calm 10.00 Overcast BKN027 OVC032 73.4 66.2 78% 30.06 0.0
10 10:55 NW 8 10.00 Overcast SCT023 OVC029 75.2 66.2 74% 77 30.06 0.0
10 10:35 Calm 10.00 Overcast FEW018 OVC028 73.4 68 83% 30.06 0.0
10 10:15 Calm 10.00 Mostly Cloudy FEW015 FEW020 BKN027 71.6 69.8 94% 30.06 0.0
10 09:55 Calm 10.00 Overcast FEW009 SCT014 OVC027 69.8 69.8 100% 30.06 0.0
10 09:35 Calm 10.00 Overcast BKN010 BKN013 OVC028 69.8 69.8 100% 30.06 0.0
10 09:15 Calm 10.00 Overcast BKN008 OVC012 68 68 100% 30.06 0.0
10 08:55 Calm 10.00 Overcast OVC008 68 68 100% 30.05 0.0
10 08:35 Calm 10.00 Overcast BKN006 OVC009 66.2 66.2 100% 30.04 0.0
10 08:15 Calm 8.00 Overcast OVC006 66.2 66.2 100% 30.04 0.0
10 07:55 Calm 7.00 Overcast OVC003 66.2 66.2 100% 30.03 0.0
10 07:35 Calm 6.00 Fog/Mist OVC003 66.2 66.2 100% 30.03 0.0
10 07:15 Calm 1.50 Fog/Mist OVC003 66.2 66.2 100% 30.03 0.0
10 06:55 Calm 0.15 Fog OVC002 66.2 66.2 100% 30.02 0.0
10 06:35 Calm 0.15 Fog OVC002 64.4 64.4 100% 30.01 0.0
10 06:10 Calm 0.75 Fog/Mist OVC002 64.4 64.4 100% 29.99 0.0
10 05:50 Calm 1.75 Fog/Mist OVC002 64.4 64.4 100% 29.99 0.0
10 05:35 Calm 0.25 Fog OVC002 64.4 64.4 100% 29.98 0.0
10 05:15 Calm 0.25 Fog OVC003 64.4 64.4 100% 29.98 0.0
10 04:55 SE 3 8.00 Overcast OVC005 64.4 64.4 100% 29.98 0.0
10 04:30 Calm 10.00 Overcast OVC005 64.4 64.4 100% 29.97 0.0
10 04:15 S 5 10.00 Overcast OVC005 64.4 64.4 100% 29.96 0.0
10 03:55 Calm 8.00 Overcast OVC005 62.6 62.6 100% 29.95 0.0
10 03:35 Calm 0.50 Fog/Mist OVC004 62.6 62.6 100% 29.94 0.0
10 03:15 Calm 0.25 Fog OVC005 62.6 62.6 100% 29.93 0.0
10 02:55 Calm 1.00 Fog/Mist OVC005 62.6 62.6 100% 29.92 0.0
10 02:35 Calm 1.25 Fog/Mist FEW001 OVC006 62.6 62.6 100% 29.93 0.0
10 02:15 Calm 0.50 Fog BKN001 62.6 62.6 100% 29.93 0.0
10 01:55 Calm 10.00 Fair CLR 62.6 62.6 100% 29.93 0.0
10 01:35 Calm 9.00 Fair CLR 62.6 62.6 100% 29.92 0.0
10 01:15 Calm 8.00 Fair CLR 64.4 64.4 100% 29.93 0.0
10 00:55 Calm 1.50 Fog/Mist CLR 62.6 62.6 100% 29.94 0.0
10 00:35 Calm 10.00 Fair CLR 64.4 64.4 100% 29.94 0.0
10 00:15 Calm 3.00 Fog/Mist SCT028 64.4 64.4 100% 29.95 0.0
09 23:55 Calm 10.00 Mostly Cloudy BKN028 64.4 64.4 100% 29.96 0.0
09 23:35 Calm 10.00 Fair CLR 64.4 64.4 100% 29.95 0.0
09 23:15 Calm 10.00 A Few Clouds FEW029 66.2 66.2 100% 29.95 0.0
09 22:55 Calm 10.00 Partly Cloudy FEW015 SCT028 66.2 66.2 100% 29.95 0.0
09 22:35 Calm 10.00 Fair CLR 66.2 66.2 100% 29.95 0.0
09 22:15 Calm 10.00 A Few Clouds FEW018 FEW032 66.2 66.2 100% 29.95 0.0
09 21:55 Calm 10.00 Mostly Cloudy BKN031 66.2 66.2 100% 29.96 0.0
09 21:35 Calm 10.00 Overcast FEW025 OVC031 66.2 66.2 100% 29.95 0.0
09 21:15 Calm 10.00 Overcast OVC031 66.2 66.2 100% 29.94 0.0
09 20:55 Calm 10.00 Mostly Cloudy BKN030 66.2 66.2 100% 29.93 0.0
09 20:35 Calm 10.00 Fair CLR 66.2 66.2 100% 29.94 0.0
09 20:15 SE 3 10.00 Fair CLR 66.2 66.2 100% 29.92 0.0
09 19:55 Calm 10.00 A Few Clouds FEW034 68 68 100% 29.92 0.0
09 19:30 Calm 10.00 Mostly Cloudy BKN034 68 68 100% 29.91 0.0
09 19:15 Calm 10.00 Mostly Cloudy BKN034 69.8 69.8 100% 29.91 0.0
09 18:55 Calm 10.00 Overcast OVC033 69.8 69.8 100% 29.91 0.0
09 18:35 S 5 10.00 Overcast OVC034 69.8 68 94% 29.9 0.0
09 18:10 S 3 10.00 Overcast OVC033 69.8 68 94% 29.9 0.0
09 17:55 S 5 10.00 Mostly Cloudy BKN032 71.6 68 88% 29.9 0.0
09 17:35 Calm 10.00 Mostly Cloudy BKN030 71.6 68 88% 29.88 0.0
09 17:10 SW 6 10.00 Overcast SCT020 OVC030 71.6 68 88% 29.89 0.0
09 16:50 Calm 10.00 Overcast OVC019 71.6 68 88% 29.88 0.0
09 16:30 S 5 10.00 Overcast BKN016 OVC026 71.6 68 88% 29.88 0.0
09 16:15 Calm 10.00 Overcast BKN016 OVC026 71.6 68 88% 29.88 0.0
09 15:55 Calm 10.00 Overcast BKN015 OVC021 71.6 68 88% 29.87 0.0
09 15:35 Calm 10.00 Overcast BKN015 OVC021 71.6 68 88% 29.88 0.0
09 15:15 Calm 10.00 Overcast BKN015 OVC020 71.6 68 88% 29.88 0.0
09 14:50 Calm 10.00 Overcast OVC015 71.6 68 88% 29.87 0.0
09 14:35 Calm 10.00 Overcast OVC014 69.8 68 94% 29.88 0.0
09 14:15 Calm 10.00 Mostly Cloudy BKN013 69.8 68 94% 29.88 0.0
09 13:50 Calm 10.00 Mostly Cloudy BKN013 69.8 68 94% 29.88 0.0
09 13:35 Calm 10.00 Mostly Cloudy BKN013 69.8 68 94% 29.89 0.0
09 13:10 SW 6 10.00 Mostly Cloudy SCT011 BKN015 68 68 100% 29.91 0.0
09 12:50 S 7 10.00 Partly Cloudy FEW008 SCT012 69.8 69.8 100% 29.91 0.0
09 12:35 Calm 10.00 Mostly Cloudy BKN006 68 68 100% 29.92 0.0
09 12:15 Calm 10.00 Mostly Cloudy BKN005 68 68 100% 29.92 0.0
09 11:55 Calm 10.00 Partly Cloudy SCT005 66.2 66.2 100% 29.91 0.0
09 11:35 Calm 10.00 Mostly Cloudy BKN005 66.2 66.2 100% 29.91 0.0
09 11:10 N 5 10.00 Partly Cloudy SCT004 66.2 66.2 100% 29.91 0.0
09 10:55 Calm 10.00 Mostly Cloudy BKN005 66.2 66.2 100% 29.92 0.0 0.02
09 10:35 N 6 10.00 Mostly Cloudy BKN005 64.4 64.4 100% 29.92 0.0
09 10:15 Calm 7.00 Light Rain FEW005 64.4 64.4 100% 29.91 0.0
09 09:55 Calm 7.00 Light Rain CLR 64.4 64.4 100% 29.91 0.0 0.11
09 09:35 S 7 7.00 Light Rain FEW039 FEW045 64.4 64.4 100% 29.9 0.0
09 09:15 S 10 3.00 Rain BKN035 BKN043 BKN049 64.4 64.4 100% 29.91 0.0
09 08:55 Calm 2.50 Thunderstorm in Vicinity Rain BKN032 OVC039 64.4 64.4 100% 29.94 0.0 0.23
09 08:35 S 7 2.50 Thunderstorm Heavy Rain BKN035 OVC042 64.4 64.4 100% 29.94 0.0
09 08:15 SW 7 3.00 Thunderstorm in Vicinity Rain BKN035 OVC041 64.4 64.4 100% 29.95 0.0
09 07:55 S 5 3.00 Thunderstorm in Vicinity Rain BKN034 BKN050 OVC095 62.6 62.6 100% 29.92 0.0 0.06
09 07:35 SW 6 8.00 Light Rain FEW040 SCT055 BKN090 64.4 64.4 100% 29.93 0.0
09 07:15 S 5 7.00 Light Rain FEW035 SCT060 BKN080 62.6 62.6 100% 29.92 0.0
09 06:50 S 7 6.00 Light Rain FEW004 SCT036 BKN070 62.6 62.6 100% 29.9 0.0
09 06:35 S 12 8.00 Light Rain FEW004 SCT035 BKN070 64.4 64.4 100% 29.88 0.0
09 06:15 S 10 6.00 Thunderstorm in Vicinity Drizzle FEW003 BKN037 OVC075 62.6 62.6 100% 29.89 0.0
09 05:55 S 12 1.00 Thunderstorm in Vicinity Rain OVC003 62.6 62.6 100% 29.9 0.0 0.83
09 05:35 Calm 1.00 Heavy Rain BKN003 OVC014 62.6 62.6 100% 29.93 0.0
09 05:10 Calm 3.00 Thunderstorm in Vicinity Drizzle FEW004 SCT026 BKN037 62.6 62.6 100% 29.9 0.0
09 04:55 Calm 3.00 Rain FEW003 SCT022 BKN044 62.6 62.6 100% 29.9 0.0 0.14
09 04:35 Calm 3.00 Light Rain BKN004 BKN021 OVC050 62.6 62.6 100% 29.89 0.0
09 04:15 S 7 4.00 Thunderstorm in Vicinity Rain SCT003 SCT016 OVC022 62.6 62.6 100% 29.9 0.0
09 03:55 N 8 3.00 Thunderstorm in Vicinity Rain OVC023 62.6 62.6 100% 29.92 0.0 0.04
09 03:35 NW 5 10.00 Overcast BKN025 OVC065 60.8 60.8 100% 29.91 0.0
09 03:10 NW 3 10.00 Overcast SCT065 OVC110 60.8 60.8 100% 29.91 0.0
09 02:55 Calm 10.00 Mostly Cloudy BKN110 60.8 60.8 100% 29.9 0.0
09 02:35 Calm 9.00 Fair CLR 60.8 60.8 100% 29.88 0.0
09 02:10 Calm 10.00 Fair CLR 60.8 60.8 100% 29.88 0.0
09 01:50 Calm 8.00 Fair CLR 60.8 60.8 100% 29.89 0.0
09 01:35 Calm 10.00 Fair CLR 60.8 60.8 100% 29.88 0.0
09 01:10 Calm 10.00 Fair CLR 60.8 60.8 100% 29.9 0.0
09 00:55 Calm 10.00 Fair CLR 60.8 60.8 100% 29.89 0.0
09 00:35 Calm 10.00 Fair CLR 60.8 60.8 100% 29.89 0.0
09 00:15 Calm 10.00 Fair CLR 60.8 60.8 100% 29.89 0.0
08 23:55 Calm 10.00 Fair CLR 62.6 62.6 100% 29.9 0.0
08 23:35 Calm 10.00 Fair CLR 60.8 60.8 100% 29.91 0.0
08 23:15 Calm 10.00 Fair CLR 60.8 60.8 100% 29.9 0.0
08 22:55 Calm 10.00 Fair CLR 60.8 60.8 100% 29.91 0.0
08 22:35 SE 5 10.00 Fair CLR 60.8 60.8 100% 29.91 0.0
08 22:15 Calm 10.00 Fair CLR 62.6 62.6 100% 29.91 0.0
08 21:55 Calm 10.00 Fair CLR 62.6 62.6 100% 29.91 0.0
08 21:35 SE 5 10.00 Fair CLR 62.6 62.6 100% 29.9 0.0
08 21:15 SE 6 10.00 Fair CLR 60.8 60.8 100% 29.9 0.0
08 20:55 Calm 10.00 Fair CLR 62.6 62.6 100% 29.91 0.0
08 20:35 SE 3 10.00 Fair CLR 62.6 62.6 100% 29.9 0.0
08 20:15 E 5 10.00 Fair CLR 62.6 62.6 100% 29.9 0.0
08 19:55 Calm 10.00 Fair CLR 62.6 62.6 100% 29.92 0.0
08 19:35 Calm 10.00 A Few Clouds FEW032 62.6 62.6 100% 29.92 0.0
08 19:15 Calm 10.00 A Few Clouds FEW034 64.4 62.6 94% 29.92 0.0
08 18:55 Calm 10.00 Fair CLR 64.4 62.6 94% 29.92 0.0
08 18:35 Calm 10.00 Fair CLR 64.4 64.4 100% 29.93 0.0
08 18:15 SE 6 10.00 Partly Cloudy FEW041 SCT047 64.4 64.4 100% 29.92 0.0
08 17:55 SE 5 10.00 Mostly Cloudy BKN043 66.2 62.6 88% 29.95 0.0
08 17:35 Calm 10.00 A Few Clouds FEW048 64.4 62.6 94% 29.94 0.0
08 17:15 E 7 10.00 Fair CLR 64.4 64.4 100% 29.92 0.0
08 16:55 Calm 10.00 Fair CLR 64.4 62.6 94% 29.96 0.0
08 16:35 E 5 10.00 Light Drizzle CLR 66.2 60.8 83% 29.94 0.0
08 16:15 Calm 10.00 Light Drizzle CLR 66.2 59 78% 29.97 0.0
08 15:55 Calm 10.00 Fair CLR 66.2 59 78% 29.98 0.0
08 15:35 E 3 10.00 Fair CLR 66.2 59 78% 29.95 0.0
08 15:15 E 3 10.00 Fair CLR 66.2 57.2 73% 29.96 0.0
08 14:55 SE 3 10.00 Fair CLR 68 57.2 69% 29.97 0.0
08 14:35 SE 5 10.00 Fair CLR 68 57.2 69% 29.97 0.0
08 14:15 SE 5 10.00 Fair CLR 68 55.4 64% 29.97 0.0
08 13:55 E 7 10.00 Fair CLR 68 55.4 64% 29.96 0.0
08 13:35 E 8 10.00 Fair CLR 68 55.4 64% 29.98 0.0
08 13:15 E 5 10.00 Fair CLR 68 55.4 64% 29.99 0.0
08 12:55 E 6 10.00 Fair CLR 68 55.4 64% 29.99 0.0
08 12:35 E 6 10.00 Fair CLR 68 55.4 64% 30 0.0
08 12:15 NE 6 10.00 Fair CLR 68 55.4 64% 30.01 0.0
08 11:55 E 8 10.00 Fair CLR 68 53.6 60% 30.01 0.0
08 11:35 E 8 G 15 10.00 Fair CLR 68 53.6 60% 30.02 0.0
08 11:10 E 9 10.00 Fair CLR 68 53.6 60% 30.02 0.0
08 10:55 E 8 10.00 Fair CLR 68 55.4 64% 30.02 0.0
08 10:35 E 7 10.00 Fair CLR 68 55.4 64% 30.03 0.0
08 10:15 E 12 10.00 Fair CLR 68 57.2 69% 30.01 0.0
08 09:55 E 9 10.00 Fair CLR 68 60.8 78% 30.02 0.0
08 09:35 Vrbl 7 10.00 Fair CLR 64.4 60.8 88% 30.03 0.0
08 09:15 NE 5 10.00 Fair CLR 64.4 60.8 88% 30.04 0.0
08 08:55 NE 6 10.00 Fair CLR 62.6 62.6 100% 30.04 0.0
08 08:35 NE 3 10.00 Fair CLR 62.6 62.6 100% 30.05 0.0
08 08:15 Calm 10.00 Fair CLR 62.6 62.6 100% 30.06 0.0
08 07:55 Calm 10.00 Fair CLR 62.6 62.6 100% 30.05 0.0
08 07:35 Calm 10.00 Fair CLR 62.6 62.6 100% 30.05 0.0
08 07:15 Calm 10.00 Fair CLR 60.8 60.8 100% 30.04 0.0
08 06:55 Calm 10.00 Fair CLR 60.8 60.8 100% 30.03 0.0
08 06:35 N 5 10.00 Fair CLR 59 59 100% 30.02 0.0
08 06:15 Calm 10.00 Fair CLR 59 59 100% 30 0.0
08 05:55 Calm 10.00 Fair CLR 59 59 100% 30 0.0
08 05:35 Calm 10.00 Fair CLR 60.8 60.8 100% 30 0.0
08 05:15 Calm 10.00 Fair CLR 60.8 60.8 100% 30 0.0
08 04:55 Calm 10.00 Fair CLR 60.8 60.8 100% 29.99 0.0
08 04:35 Calm 10.00 Fair CLR 60.8 60.8 100% 29.98 0.0
08 04:15 Calm 10.00 Fair CLR 60.8 60.8 100% 29.98 0.0
08 03:55 Calm 10.00 Fair CLR 60.8 60.8 100% 29.96 0.0
08 03:35 NE 5 10.00 Fair CLR 60.8 60.8 100% 29.96 0.0
08 03:15 Calm 10.00 Fair CLR 60.8 60.8 100% 29.95 0.0
08 02:55 Calm 10.00 Fair CLR 60.8 60.8 100% 29.94 0.0
08 02:35 Calm 10.00 Fair CLR 60.8 60.8 100% 29.94 0.0
08 02:15 Calm 10.00 Fair CLR 62.6 62.6 100% 29.96 0.0
08 01:55 Calm 10.00 Fair CLR 60.8 60.8 100% 29.96 0.0
08 01:35 Calm 10.00 Fair CLR 60.8 60.8 100% 29.96 0.0
08 01:15 Calm 10.00 Fair CLR 60.8 60.8 100% 29.97 0.0
08 00:55 NW 3 10.00 Fair CLR 60.8 60.8 100% 29.98 0.0
08 00:35 Calm 10.00 Fair CLR 62.6 62.6 100% 29.98 0.0
08 00:15 Calm 10.00 Fair CLR 62.6 62.6 100% 29.98 0.0
07 23:55 Calm 10.00 Fair CLR 62.6 62.6 100% 29.99 0.0
07 23:35 Calm 10.00 Fair CLR 62.6 62.6 100% 30 0.0
07 23:15 Calm 10.00 Fair CLR 62.6 62.6 100% 29.99 0.0
07 22:55 Calm 10.00 Fair CLR 62.6 62.6 100% 29.99 0.0
07 22:35 Calm 10.00 Fair CLR 62.6 62.6 100% 30 0.0
07 22:15 Calm 10.00 Fair CLR 62.6 62.6 100% 29.99 0.0
07 21:55 Calm 10.00 Fair CLR 62.6 62.6 100% 29.98 0.0
07 21:35 Calm 10.00 Fair CLR 62.6 62.6 100% 29.98 0.0
07 21:15 Calm 10.00 A Few Clouds FEW028 64.4 64.4 100% 29.98 0.0
07 20:55 Calm 10.00 Fair CLR 64.4 64.4 100% 29.98 0.0
07 20:35 Calm 10.00 Fair CLR 64.4 64.4 100% 29.97 0.0
07 20:15 Calm 10.00 Fair CLR 64.4 64.4 100% 29.96 0.0
07 19:55 Calm 10.00 Fair CLR 64.4 64.4 100% 29.96 0.0
07 19:30 W 5 10.00 Fair CLR 66.2 64.4 94% 29.97 0.0
07 19:15 W 3 10.00 Fair CLR 66.2 64.4 94% 29.96 0.0
07 18:55 W 3 10.00 A Few Clouds FEW027 68 64.4 88% 29.96 0.0
07 18:35 W 5 10.00 Partly Cloudy SCT027 68 62.6 83% 29.96 0.0
07 18:15 W 6 10.00 Partly Cloudy SCT020 69.8 62.6 78% 29.96 0.0
07 17:55 W 7 10.00 Mostly Cloudy BKN021 68 62.6 83% 29.96 0.0
07 17:35 W 7 10.00 Overcast OVC021 69.8 62.6 78% 29.95 0.0
07 17:15 W 7 10.00 Overcast OVC022 69.8 62.6 78% 29.95 0.0
07 16:55 W 8 10.00 Overcast OVC023 69.8 62.6 78% 29.95 0.0
07 16:35 W 7 10.00 Overcast OVC021 69.8 62.6 78% 29.95 0.0
07 16:15 NW 10 10.00 Overcast OVC019 69.8 62.6 78% 29.95 0.0
Date Time (cdt) Wind (mph) Vis. (mi.) Weather Sky Cond. Air Dwpt Max. Min. Relative Humidity Wind Chill (°F) Heat Index (°F) altimeter (in) sea level (mb) 1 hr 3 hr 6 hr
6 hour
Temperature (ºF) Pressure Precipitation (in)